sensor_id;sensor_type;location;lat;lon;timestamp;pressure;altitude;pressure_sealevel;temperature;humidity
79366;BME280;68833;53.160;17.920;2023-09-19T00:02:19;99866.73;;;21.50;60.16
79366;BME280;68833;53.160;17.920;2023-09-19T00:04:47;99864.05;;;21.50;60.18
79366;BME280;68833;53.160;17.920;2023-09-19T00:07:15;99867.79;;;21.51;60.32
79366;BME280;68833;53.160;17.920;2023-09-19T00:09:43;99870.69;;;21.50;60.53
79366;BME280;68833;53.160;17.920;2023-09-19T00:12:10;99878.41;;;21.50;60.43
79366;BME280;68833;53.160;17.920;2023-09-19T00:14:40;99881.77;;;21.47;60.49
79366;BME280;68833;53.160;17.920;2023-09-19T00:17:07;99884.95;;;21.45;60.68
79366;BME280;68833;53.160;17.920;2023-09-19T00:19:35;99885.88;;;21.42;60.69
79366;BME280;68833;53.160;17.920;2023-09-19T00:22:03;99892.39;;;21.41;60.85
79366;BME280;68833;53.160;17.920;2023-09-19T00:24:30;99892.98;;;21.37;60.87
79366;BME280;68833;53.160;17.920;2023-09-19T00:26:57;99895.15;;;21.34;61.24
79366;BME280;68833;53.160;17.920;2023-09-19T00:29:26;99895.48;;;21.32;61.43
79366;BME280;68833;53.160;17.920;2023-09-19T00:31:58;99894.39;;;21.30;61.66
79366;BME280;68833;53.160;17.920;2023-09-19T00:34:26;99894.30;;;21.28;61.96
79366;BME280;68833;53.160;17.920;2023-09-19T00:36:53;99895.83;;;21.27;62.08
79366;BME280;68833;53.160;17.920;2023-09-19T00:39:20;99889.03;;;21.24;62.37
79366;BME280;68833;53.160;17.920;2023-09-19T00:41:48;99891.47;;;21.22;62.61
79366;BME280;68833;53.160;17.920;2023-09-19T00:44:15;99888.89;;;21.21;62.62
79366;BME280;68833;53.160;17.920;2023-09-19T00:46:43;99890.24;;;21.19;62.75
79366;BME280;68833;53.160;17.920;2023-09-19T00:49:10;99888.61;;;21.17;62.85
79366;BME280;68833;53.160;17.920;2023-09-19T00:51:38;99883.75;;;21.15;62.80
79366;BME280;68833;53.160;17.920;2023-09-19T00:54:08;99881.21;;;21.16;63.06
79366;BME280;68833;53.160;17.920;2023-09-19T00:56:36;99874.77;;;21.16;63.21
79366;BME280;68833;53.160;17.920;2023-09-19T00:59:04;99873.04;;;21.15;63.15
79366;BME280;68833;53.160;17.920;2023-09-19T01:01:31;99872.94;;;21.14;63.15
79366;BME280;68833;53.160;17.920;2023-09-19T01:03:59;99869.76;;;21.13;63.41
79366;BME280;68833;53.160;17.920;2023-09-19T01:06:26;99870.17;;;21.12;63.32
79366;BME280;68833;53.160;17.920;2023-09-19T01:08:53;99868.58;;;21.12;63.56
79366;BME280;68833;53.160;17.920;2023-09-19T01:11:35;99865.87;;;21.10;63.40
79366;BME280;68833;53.160;17.920;2023-09-19T01:14:29;99867.36;;;21.12;63.83
79366;BME280;68833;53.160;17.920;2023-09-19T01:17:20;99863.39;;;21.10;63.76
79366;BME280;68833;53.160;17.920;2023-09-19T01:20:17;99865.83;;;21.08;63.92
79366;BME280;68833;53.160;17.920;2023-09-19T01:23:12;99864.17;;;21.05;64.19
79366;BME280;68833;53.160;17.920;2023-09-19T01:30:57;99845.29;;;21.02;64.38
79366;BME280;68833;53.160;17.920;2023-09-19T01:33:28;99832.73;;;21.03;64.45
79366;BME280;68833;53.160;17.920;2023-09-19T01:36:00;99818.95;;;21.01;64.80
79366;BME280;68833;53.160;17.920;2023-09-19T01:38:27;99807.12;;;20.99;64.68
79366;BME280;68833;53.160;17.920;2023-09-19T01:41:10;99803.27;;;20.95;64.98
79366;BME280;68833;53.160;17.920;2023-09-19T01:43:42;99807.70;;;20.93;64.76
79366;BME280;68833;53.160;17.920;2023-09-19T01:46:18;99820.59;;;20.93;64.81
79366;BME280;68833;53.160;17.920;2023-09-19T01:49:42;99836.27;;;20.93;64.93
79366;BME280;68833;53.160;17.920;2023-09-19T01:52:13;99845.39;;;20.93;65.26
79366;BME280;68833;53.160;17.920;2023-09-19T01:54:50;99841.08;;;20.93;65.45
79366;BME280;68833;53.160;17.920;2023-09-19T01:59:54;99836.88;;;20.92;65.52
79366;BME280;68833;53.160;17.920;2023-09-19T02:02:27;99839.88;;;20.90;65.81
79366;BME280;68833;53.160;17.920;2023-09-19T02:04:55;99839.54;;;20.89;66.05
79366;BME280;68833;53.160;17.920;2023-09-19T02:07:25;99840.72;;;20.88;65.95
79366;BME280;68833;53.160;17.920;2023-09-19T02:09:54;99838.50;;;20.86;66.19
79366;BME280;68833;53.160;17.920;2023-09-19T02:12:21;99838.78;;;20.84;66.15
79366;BME280;68833;53.160;17.920;2023-09-19T02:14:49;99847.35;;;20.82;66.60
79366;BME280;68833;53.160;17.920;2023-09-19T02:17:16;99849.33;;;20.79;66.50
79366;BME280;68833;53.160;17.920;2023-09-19T02:19:44;99855.84;;;20.78;66.68
79366;BME280;68833;53.160;17.920;2023-09-19T02:22:11;99848.61;;;20.79;66.89
79366;BME280;68833;53.160;17.920;2023-09-19T02:24:38;99837.14;;;20.79;66.66
79366;BME280;68833;53.160;17.920;2023-09-19T02:27:06;99836.39;;;20.80;66.48
79366;BME280;68833;53.160;17.920;2023-09-19T02:29:34;99838.48;;;20.81;66.67
79366;BME280;68833;53.160;17.920;2023-09-19T02:32:01;99831.90;;;20.81;66.31
79366;BME280;68833;53.160;17.920;2023-09-19T02:34:31;99837.07;;;20.81;66.76
79366;BME280;68833;53.160;17.920;2023-09-19T02:36:59;99843.16;;;20.78;67.43
79366;BME280;68833;53.160;17.920;2023-09-19T02:39:26;99842.67;;;20.74;66.91
79366;BME280;68833;53.160;17.920;2023-09-19T02:41:54;99856.11;;;20.73;67.45
79366;BME280;68833;53.160;17.920;2023-09-19T02:44:21;99868.58;;;20.71;67.47
79366;BME280;68833;53.160;17.920;2023-09-19T02:46:49;99846.85;;;20.67;68.36
79366;BME280;68833;53.160;17.920;2023-09-19T02:49:17;99850.11;;;20.61;68.51
79366;BME280;68833;53.160;17.920;2023-09-19T02:51:47;99863.14;;;20.55;68.61
79366;BME280;68833;53.160;17.920;2023-09-19T02:54:14;99871.58;;;20.51;69.58
79366;BME280;68833;53.160;17.920;2023-09-19T02:56:42;99869.44;;;20.48;69.83
79366;BME280;68833;53.160;17.920;2023-09-19T02:59:09;99861.34;;;20.44;70.79
79366;BME280;68833;53.160;17.920;2023-09-19T03:01:37;99857.81;;;20.37;71.33
79366;BME280;68833;53.160;17.920;2023-09-19T03:04:05;99854.05;;;20.29;71.87
79366;BME280;68833;53.160;17.920;2023-09-19T03:06:36;99863.54;;;20.26;71.68
79366;BME280;68833;53.160;17.920;2023-09-19T03:09:03;99870.65;;;20.24;71.89
79366;BME280;68833;53.160;17.920;2023-09-19T03:11:32;99872.55;;;20.21;71.95
79366;BME280;68833;53.160;17.920;2023-09-19T03:14:00;99871.65;;;20.18;71.95
79366;BME280;68833;53.160;17.920;2023-09-19T03:16:27;99864.77;;;20.18;71.65
79366;BME280;68833;53.160;17.920;2023-09-19T03:18:56;99854.36;;;20.19;71.57
79366;BME280;68833;53.160;17.920;2023-09-19T03:21:23;99859.15;;;20.19;71.55
79366;BME280;68833;53.160;17.920;2023-09-19T03:23:53;99866.57;;;20.20;71.53
79366;BME280;68833;53.160;17.920;2023-09-19T03:26:20;99867.95;;;20.21;71.88
79366;BME280;68833;53.160;17.920;2023-09-19T03:28:47;99865.27;;;20.21;71.89
79366;BME280;68833;53.160;17.920;2023-09-19T03:31:15;99862.64;;;20.20;71.63
79366;BME280;68833;53.160;17.920;2023-09-19T03:33:42;99863.74;;;20.20;71.87
79366;BME280;68833;53.160;17.920;2023-09-19T03:36:09;99859.08;;;20.20;72.19
79366;BME280;68833;53.160;17.920;2023-09-19T03:38:36;99852.90;;;20.19;72.09
79366;BME280;68833;53.160;17.920;2023-09-19T03:41:03;99858.29;;;20.19;71.78
79366;BME280;68833;53.160;17.920;2023-09-19T03:43:31;99857.23;;;20.18;72.20
79366;BME280;68833;53.160;17.920;2023-09-19T03:46:02;99860.63;;;20.18;72.15
79366;BME280;68833;53.160;17.920;2023-09-19T03:48:32;99867.42;;;20.15;72.07
79366;BME280;68833;53.160;17.920;2023-09-19T03:51:00;99861.16;;;20.13;72.18
79366;BME280;68833;53.160;17.920;2023-09-19T03:53:27;99865.41;;;20.13;72.06
79366;BME280;68833;53.160;17.920;2023-09-19T03:55:54;99864.45;;;20.14;71.96
79366;BME280;68833;53.160;17.920;2023-09-19T03:58:22;99865.35;;;20.14;72.14
79366;BME280;68833;53.160;17.920;2023-09-19T04:00:49;99857.66;;;20.14;72.14
79366;BME280;68833;53.160;17.920;2023-09-19T04:03:17;99851.67;;;20.13;72.36
79366;BME280;68833;53.160;17.920;2023-09-19T04:05:48;99838.30;;;20.10;72.40
79366;BME280;68833;53.160;17.920;2023-09-19T04:08:15;99832.98;;;20.07;72.60
79366;BME280;68833;53.160;17.920;2023-09-19T04:10:43;99839.69;;;20.05;72.60
79366;BME280;68833;53.160;17.920;2023-09-19T04:13:12;99835.45;;;20.04;72.48
79366;BME280;68833;53.160;17.920;2023-09-19T04:15:39;99822.09;;;20.01;72.41
79366;BME280;68833;53.160;17.920;2023-09-19T04:18:07;99824.45;;;20.00;72.51
79366;BME280;68833;53.160;17.920;2023-09-19T04:20:35;99821.74;;;20.01;72.29
79366;BME280;68833;53.160;17.920;2023-09-19T04:23:02;99827.96;;;20.01;72.10
79366;BME280;68833;53.160;17.920;2023-09-19T04:25:29;99835.85;;;20.03;72.32
79366;BME280;68833;53.160;17.920;2023-09-19T04:27:56;99825.47;;;20.01;72.53
79366;BME280;68833;53.160;17.920;2023-09-19T04:30:23;99834.89;;;19.96;72.41
79366;BME280;68833;53.160;17.920;2023-09-19T04:32:50;99841.58;;;19.92;72.24
79366;BME280;68833;53.160;17.920;2023-09-19T04:35:17;99841.59;;;19.91;72.52
79366;BME280;68833;53.160;17.920;2023-09-19T04:37:44;99854.75;;;19.92;72.41
79366;BME280;68833;53.160;17.920;2023-09-19T04:40:11;99856.73;;;19.92;72.41
79366;BME280;68833;53.160;17.920;2023-09-19T04:42:44;99848.84;;;19.92;72.56
79366;BME280;68833;53.160;17.920;2023-09-19T04:45:11;99846.54;;;19.89;72.64
79366;BME280;68833;53.160;17.920;2023-09-19T04:47:39;99854.17;;;19.90;72.90
79366;BME280;68833;53.160;17.920;2023-09-19T04:50:08;99851.77;;;19.85;72.75
79366;BME280;68833;53.160;17.920;2023-09-19T04:52:40;99853.85;;;19.83;72.44
79366;BME280;68833;53.160;17.920;2023-09-19T04:55:10;99851.86;;;19.84;72.32
79366;BME280;68833;53.160;17.920;2023-09-19T04:57:37;99849.47;;;19.85;72.64
79366;BME280;68833;53.160;17.920;2023-09-19T05:00:06;99843.58;;;19.83;72.90
79366;BME280;68833;53.160;17.920;2023-09-19T05:02:39;99847.60;;;19.81;72.90
79366;BME280;68833;53.160;17.920;2023-09-19T05:05:10;99844.08;;;19.80;73.04
79366;BME280;68833;53.160;17.920;2023-09-19T05:07:41;99849.75;;;19.80;72.86
79366;BME280;68833;53.160;17.920;2023-09-19T05:10:09;99844.05;;;19.80;72.66
79366;BME280;68833;53.160;17.920;2023-09-19T05:12:40;99845.33;;;19.79;73.03
79366;BME280;68833;53.160;17.920;2023-09-19T05:15:08;99845.23;;;19.75;73.01
79366;BME280;68833;53.160;17.920;2023-09-19T05:17:35;99847.83;;;19.73;72.97
79366;BME280;68833;53.160;17.920;2023-09-19T05:20:03;99847.90;;;19.72;73.15
79366;BME280;68833;53.160;17.920;2023-09-19T05:22:38;99839.92;;;19.71;73.17
79366;BME280;68833;53.160;17.920;2023-09-19T05:25:07;99841.39;;;19.70;73.51
79366;BME280;68833;53.160;17.920;2023-09-19T05:27:34;99851.06;;;19.67;73.61
79366;BME280;68833;53.160;17.920;2023-09-19T05:30:02;99854.21;;;19.65;73.31
79366;BME280;68833;53.160;17.920;2023-09-19T05:32:29;99860.09;;;19.62;73.54
79366;BME280;68833;53.160;17.920;2023-09-19T05:34:56;99867.16;;;19.60;73.60
79366;BME280;68833;53.160;17.920;2023-09-19T05:37:23;99869.45;;;19.57;73.77
79366;BME280;68833;53.160;17.920;2023-09-19T05:39:53;99869.56;;;19.56;73.47
79366;BME280;68833;53.160;17.920;2023-09-19T05:42:24;99870.16;;;19.58;73.48
79366;BME280;68833;53.160;17.920;2023-09-19T05:44:51;99866.45;;;19.57;73.78
79366;BME280;68833;53.160;17.920;2023-09-19T05:47:18;99863.79;;;19.54;73.83
79366;BME280;68833;53.160;17.920;2023-09-19T05:49:45;99865.21;;;19.50;74.08
79366;BME280;68833;53.160;17.920;2023-09-19T05:52:12;99861.26;;;19.48;74.10
79366;BME280;68833;53.160;17.920;2023-09-19T05:54:39;99861.71;;;19.47;74.08
79366;BME280;68833;53.160;17.920;2023-09-19T05:57:06;99863.32;;;19.47;73.97
79366;BME280;68833;53.160;17.920;2023-09-19T05:59:33;99871.16;;;19.47;74.24
79366;BME280;68833;53.160;17.920;2023-09-19T06:02:00;99875.02;;;19.42;74.04
79366;BME280;68833;53.160;17.920;2023-09-19T06:04:28;99876.70;;;19.40;74.16
79366;BME280;68833;53.160;17.920;2023-09-19T06:06:57;99876.29;;;19.38;74.06
79366;BME280;68833;53.160;17.920;2023-09-19T06:09:25;99876.48;;;19.37;73.97
79366;BME280;68833;53.160;17.920;2023-09-19T06:11:54;99876.27;;;19.35;74.12
79366;BME280;68833;53.160;17.920;2023-09-19T06:14:22;99878.27;;;19.29;74.11
79366;BME280;68833;53.160;17.920;2023-09-19T06:16:51;99886.33;;;19.27;74.22
79366;BME280;68833;53.160;17.920;2023-09-19T06:19:20;99890.23;;;19.25;74.35
79366;BME280;68833;53.160;17.920;2023-09-19T06:21:49;99887.48;;;19.23;74.30
79366;BME280;68833;53.160;17.920;2023-09-19T06:24:16;99891.41;;;19.23;74.46
79366;BME280;68833;53.160;17.920;2023-09-19T06:26:43;99892.48;;;19.23;74.36
79366;BME280;68833;53.160;17.920;2023-09-19T06:29:11;99893.06;;;19.22;74.31
79366;BME280;68833;53.160;17.920;2023-09-19T06:31:39;99897.14;;;19.22;74.29
79366;BME280;68833;53.160;17.920;2023-09-19T06:34:06;99898.70;;;19.23;74.36
79366;BME280;68833;53.160;17.920;2023-09-19T06:36:33;99902.94;;;19.24;74.40
79366;BME280;68833;53.160;17.920;2023-09-19T06:39:00;99906.98;;;19.25;74.38
79366;BME280;68833;53.160;17.920;2023-09-19T06:41:29;99905.39;;;19.25;74.62
79366;BME280;68833;53.160;17.920;2023-09-19T06:43:56;99903.05;;;19.25;74.38
79366;BME280;68833;53.160;17.920;2023-09-19T06:46:24;99903.69;;;19.26;74.54
79366;BME280;68833;53.160;17.920;2023-09-19T06:48:51;99908.61;;;19.27;74.38
79366;BME280;68833;53.160;17.920;2023-09-19T06:51:20;99910.67;;;19.28;74.48
79366;BME280;68833;53.160;17.920;2023-09-19T06:53:47;99910.61;;;19.26;74.63
79366;BME280;68833;53.160;17.920;2023-09-19T06:56:14;99914.77;;;19.22;74.59
79366;BME280;68833;53.160;17.920;2023-09-19T06:58:42;99920.07;;;19.20;74.66
79366;BME280;68833;53.160;17.920;2023-09-19T07:01:10;99917.06;;;19.19;74.53
79366;BME280;68833;53.160;17.920;2023-09-19T07:03:37;99921.12;;;19.20;74.41
79366;BME280;68833;53.160;17.920;2023-09-19T07:06:04;99923.19;;;19.21;74.58
79366;BME280;68833;53.160;17.920;2023-09-19T07:08:31;99914.36;;;19.23;74.54
79366;BME280;68833;53.160;17.920;2023-09-19T07:10:58;99915.35;;;19.25;74.57
79366;BME280;68833;53.160;17.920;2023-09-19T07:13:27;99918.10;;;19.26;74.64
79366;BME280;68833;53.160;17.920;2023-09-19T07:15:54;99924.65;;;19.27;74.57
79366;BME280;68833;53.160;17.920;2023-09-19T07:18:21;99928.45;;;19.32;74.69
79366;BME280;68833;53.160;17.920;2023-09-19T07:20:48;99926.63;;;19.33;74.81
79366;BME280;68833;53.160;17.920;2023-09-19T07:23:20;99924.30;;;19.33;74.51
79366;BME280;68833;53.160;17.920;2023-09-19T07:25:49;99929.63;;;19.33;74.68
79366;BME280;68833;53.160;17.920;2023-09-19T07:28:16;99934.91;;;19.31;74.76
79366;BME280;68833;53.160;17.920;2023-09-19T07:30:44;99934.92;;;19.31;74.51
79366;BME280;68833;53.160;17.920;2023-09-19T07:33:11;99935.38;;;19.32;74.82
79366;BME280;68833;53.160;17.920;2023-09-19T07:35:39;99944.63;;;19.33;74.90
79366;BME280;68833;53.160;17.920;2023-09-19T07:38:09;99945.42;;;19.34;74.95
79366;BME280;68833;53.160;17.920;2023-09-19T07:40:38;99953.86;;;19.33;75.11
79366;BME280;68833;53.160;17.920;2023-09-19T07:43:05;99958.87;;;19.30;75.12
79366;BME280;68833;53.160;17.920;2023-09-19T07:45:33;99958.98;;;19.27;75.18
79366;BME280;68833;53.160;17.920;2023-09-19T07:48:01;99959.09;;;19.26;75.14
79366;BME280;68833;53.160;17.920;2023-09-19T07:50:31;99963.48;;;19.27;75.17
79366;BME280;68833;53.160;17.920;2023-09-19T07:52:59;99963.29;;;19.27;75.28
79366;BME280;68833;53.160;17.920;2023-09-19T07:55:27;99961.60;;;19.25;75.35
79366;BME280;68833;53.160;17.920;2023-09-19T07:57:54;99964.81;;;19.25;75.25
79366;BME280;68833;53.160;17.920;2023-09-19T08:00:21;99971.91;;;19.26;75.22
79366;BME280;68833;53.160;17.920;2023-09-19T08:02:49;99969.95;;;19.26;75.00
79366;BME280;68833;53.160;17.920;2023-09-19T08:05:16;99965.95;;;19.27;75.23
79366;BME280;68833;53.160;17.920;2023-09-19T08:07:44;99964.44;;;19.29;75.16
79366;BME280;68833;53.160;17.920;2023-09-19T08:10:19;99967.38;;;19.30;75.32
79366;BME280;68833;53.160;17.920;2023-09-19T08:12:48;99969.30;;;19.31;75.14
79366;BME280;68833;53.160;17.920;2023-09-19T08:15:18;99972.30;;;19.31;75.35
79366;BME280;68833;53.160;17.920;2023-09-19T08:17:49;99975.24;;;19.32;75.33
79366;BME280;68833;53.160;17.920;2023-09-19T08:20:17;99979.34;;;19.33;75.17
79366;BME280;68833;53.160;17.920;2023-09-19T08:22:50;99975.95;;;19.33;75.35
79366;BME280;68833;53.160;17.920;2023-09-19T08:25:19;99977.04;;;19.36;75.32
79366;BME280;68833;53.160;17.920;2023-09-19T08:27:48;99980.55;;;19.36;75.22
79366;BME280;68833;53.160;17.920;2023-09-19T08:30:17;99986.33;;;19.38;75.14
79366;BME280;68833;53.160;17.920;2023-09-19T08:32:44;99991.34;;;19.41;75.03
79366;BME280;68833;53.160;17.920;2023-09-19T08:35:13;99994.98;;;19.46;75.14
79366;BME280;68833;53.160;17.920;2023-09-19T08:37:40;100004.75;;;19.50;75.44
79366;BME280;68833;53.160;17.920;2023-09-19T08:40:08;100007.29;;;19.52;75.72
79366;BME280;68833;53.160;17.920;2023-09-19T08:42:54;100007.64;;;19.52;75.46
79366;BME280;68833;53.160;17.920;2023-09-19T08:45:22;100009.20;;;19.52;75.22
79366;BME280;68833;53.160;17.920;2023-09-19T08:50:49;100017.58;;;19.55;75.08
79366;BME280;68833;53.160;17.920;2023-09-19T08:53:31;100017.12;;;19.54;75.18
79366;BME280;68833;53.160;17.920;2023-09-19T08:56:01;100023.52;;;19.58;75.33
79366;BME280;68833;53.160;17.920;2023-09-19T08:58:42;100026.05;;;19.60;75.51
79366;BME280;68833;53.160;17.920;2023-09-19T09:01:11;100026.28;;;19.62;75.13
79366;BME280;68833;53.160;17.920;2023-09-19T09:03:42;100027.01;;;19.62;74.94
79366;BME280;68833;53.160;17.920;2023-09-19T09:06:14;100026.11;;;19.62;74.82
79366;BME280;68833;53.160;17.920;2023-09-19T09:08:43;100027.30;;;19.63;74.85
79366;BME280;68833;53.160;17.920;2023-09-19T09:11:16;100026.55;;;19.61;74.53
79366;BME280;68833;53.160;17.920;2023-09-19T09:13:47;100026.11;;;19.62;74.73
79366;BME280;68833;53.160;17.920;2023-09-19T09:16:15;100022.14;;;19.63;74.37
79366;BME280;68833;53.160;17.920;2023-09-19T09:18:46;100019.88;;;19.65;74.46
79366;BME280;68833;53.160;17.920;2023-09-19T09:21:19;100024.19;;;19.68;74.51
79366;BME280;68833;53.160;17.920;2023-09-19T09:23:48;100021.41;;;19.70;74.45
79366;BME280;68833;53.160;17.920;2023-09-19T09:26:16;100023.58;;;19.72;74.10
79366;BME280;68833;53.160;17.920;2023-09-19T09:28:46;100017.87;;;19.76;74.09
79366;BME280;68833;53.160;17.920;2023-09-19T09:31:23;100016.20;;;19.80;73.84
79366;BME280;68833;53.160;17.920;2023-09-19T09:33:55;100019.81;;;19.82;73.70
79366;BME280;68833;53.160;17.920;2023-09-19T09:36:39;100026.50;;;19.84;73.24
79366;BME280;68833;53.160;17.920;2023-09-19T09:39:08;100030.52;;;19.82;73.21
79366;BME280;68833;53.160;17.920;2023-09-19T09:41:51;100036.41;;;19.82;73.26
79366;BME280;68833;53.160;17.920;2023-09-19T09:44:18;100030.47;;;19.83;73.50
79366;BME280;68833;53.160;17.920;2023-09-19T09:46:47;100033.76;;;19.85;73.13
79366;BME280;68833;53.160;17.920;2023-09-19T09:49:26;100033.84;;;19.86;72.86
79366;BME280;68833;53.160;17.920;2023-09-19T09:52:05;100038.02;;;19.88;72.69
79366;BME280;68833;53.160;17.920;2023-09-19T09:55:00;100042.19;;;19.90;72.85
79366;BME280;68833;53.160;17.920;2023-09-19T09:57:36;100040.02;;;19.91;72.28
79366;BME280;68833;53.160;17.920;2023-09-19T10:03:38;100047.26;;;19.95;72.03
79366;BME280;68833;53.160;17.920;2023-09-19T10:06:13;100055.56;;;19.99;71.71
79366;BME280;68833;53.160;17.920;2023-09-19T10:09:04;100055.45;;;20.07;71.30
79366;BME280;68833;53.160;17.920;2023-09-19T10:12:03;100058.70;;;20.16;70.63
79366;BME280;68833;53.160;17.920;2023-09-19T10:14:35;100065.08;;;20.23;70.88
79366;BME280;68833;53.160;17.920;2023-09-19T10:17:05;100062.39;;;20.26;70.82
79366;BME280;68833;53.160;17.920;2023-09-19T10:19:37;100067.50;;;20.29;70.60
79366;BME280;68833;53.160;17.920;2023-09-19T10:22:14;100066.05;;;20.30;70.30
79366;BME280;68833;53.160;17.920;2023-09-19T10:24:43;100074.23;;;20.30;70.09
79366;BME280;68833;53.160;17.920;2023-09-19T10:27:11;100082.16;;;20.29;70.01
79366;BME280;68833;53.160;17.920;2023-09-19T10:29:39;100081.26;;;20.26;69.79
79366;BME280;68833;53.160;17.920;2023-09-19T10:32:08;100082.63;;;20.27;69.81
79366;BME280;68833;53.160;17.920;2023-09-19T10:34:36;100084.73;;;20.25;69.10
79366;BME280;68833;53.160;17.920;2023-09-19T10:37:05;100087.50;;;20.23;69.20
79366;BME280;68833;53.160;17.920;2023-09-19T10:39:36;100093.02;;;20.20;68.72
79366;BME280;68833;53.160;17.920;2023-09-19T10:42:06;100086.74;;;20.18;68.68
79366;BME280;68833;53.160;17.920;2023-09-19T10:44:38;100090.30;;;20.18;68.78
79366;BME280;68833;53.160;17.920;2023-09-19T10:47:11;100089.42;;;20.21;68.98
79366;BME280;68833;53.160;17.920;2023-09-19T10:49:45;100088.48;;;20.24;68.45
79366;BME280;68833;53.160;17.920;2023-09-19T10:52:18;100086.09;;;20.29;68.46
79366;BME280;68833;53.160;17.920;2023-09-19T10:54:51;100082.96;;;20.33;67.47
79366;BME280;68833;53.160;17.920;2023-09-19T10:57:22;100079.40;;;20.36;66.91
79366;BME280;68833;53.160;17.920;2023-09-19T11:00:08;100074.30;;;20.38;66.97
79366;BME280;68833;53.160;17.920;2023-09-19T11:03:16;100074.83;;;20.42;67.24
79366;BME280;68833;53.160;17.920;2023-09-19T11:06:03;100078.55;;;20.42;66.50
79366;BME280;68833;53.160;17.920;2023-09-19T11:09:00;100080.09;;;20.43;65.90
79366;BME280;68833;53.160;17.920;2023-09-19T11:11:49;100075.40;;;20.44;65.69
79366;BME280;68833;53.160;17.920;2023-09-19T11:30:40;100082.55;;;20.91;62.77
79366;BME280;68833;53.160;17.920;2023-09-19T11:33:32;100081.40;;;20.98;61.81
79366;BME280;68833;53.160;17.920;2023-09-19T11:36:10;100085.95;;;21.05;61.84
79366;BME280;68833;53.160;17.920;2023-09-19T11:41:41;100091.48;;;21.11;60.86
79366;BME280;68833;53.160;17.920;2023-09-19T11:49:25;100106.17;;;21.17;59.12
79366;BME280;68833;53.160;17.920;2023-09-19T11:51:53;100114.64;;;21.15;58.30
79366;BME280;68833;53.160;17.920;2023-09-19T11:54:21;100115.25;;;21.14;57.64
79366;BME280;68833;53.160;17.920;2023-09-19T11:56:49;100114.50;;;21.15;57.93
79366;BME280;68833;53.160;17.920;2023-09-19T11:59:26;100114.54;;;21.17;57.98
79366;BME280;68833;53.160;17.920;2023-09-19T12:02:05;100123.69;;;21.19;57.32
79366;BME280;68833;53.160;17.920;2023-09-19T12:04:42;100132.28;;;21.21;57.32
79366;BME280;68833;53.160;17.920;2023-09-19T12:07:11;100136.05;;;21.24;57.43
79366;BME280;68833;53.160;17.920;2023-09-19T12:09:46;100136.15;;;21.25;57.07
79366;BME280;68833;53.160;17.920;2023-09-19T12:12:28;100140.83;;;21.28;56.98
79366;BME280;68833;53.160;17.920;2023-09-19T12:14:57;100140.71;;;21.30;56.27
79366;BME280;68833;53.160;17.920;2023-09-19T12:17:39;100129.71;;;21.31;56.56
79366;BME280;68833;53.160;17.920;2023-09-19T12:20:10;100131.27;;;21.35;57.13
79366;BME280;68833;53.160;17.920;2023-09-19T12:22:43;100129.32;;;21.38;56.57
79366;BME280;68833;53.160;17.920;2023-09-19T12:25:11;100136.55;;;21.39;56.35
79366;BME280;68833;53.160;17.920;2023-09-19T12:27:48;100145.81;;;21.39;55.92
79366;BME280;68833;53.160;17.920;2023-09-19T12:30:27;100144.36;;;21.37;55.84
79366;BME280;68833;53.160;17.920;2023-09-19T12:32:54;100151.75;;;21.33;56.18
79366;BME280;68833;53.160;17.920;2023-09-19T12:35:29;100151.67;;;21.29;55.57
79366;BME280;68833;53.160;17.920;2023-09-19T12:37:57;100160.08;;;21.26;55.96
79366;BME280;68833;53.160;17.920;2023-09-19T12:40:25;100160.45;;;21.22;55.79
79366;BME280;68833;53.160;17.920;2023-09-19T12:42:55;100157.50;;;21.21;56.24
79366;BME280;68833;53.160;17.920;2023-09-19T12:45:22;100157.51;;;21.21;55.69
79366;BME280;68833;53.160;17.920;2023-09-19T12:48:18;100153.39;;;21.21;55.14
79366;BME280;68833;53.160;17.920;2023-09-19T12:51:00;100150.11;;;21.22;55.65
79366;BME280;68833;53.160;17.920;2023-09-19T12:53:34;100152.98;;;21.25;55.58
79366;BME280;68833;53.160;17.920;2023-09-19T12:56:06;100151.90;;;21.25;54.82
79366;BME280;68833;53.160;17.920;2023-09-19T12:58:53;100159.67;;;21.23;54.78
79366;BME280;68833;53.160;17.920;2023-09-19T13:01:22;100159.42;;;21.22;54.47
79366;BME280;68833;53.160;17.920;2023-09-19T13:06:36;100168.31;;;21.19;54.28
79366;BME280;68833;53.160;17.920;2023-09-19T13:09:08;100170.12;;;21.16;54.07
79366;BME280;68833;53.160;17.920;2023-09-19T13:11:39;100164.89;;;21.14;53.74
79366;BME280;68833;53.160;17.920;2023-09-19T13:14:33;100166.14;;;21.11;53.74
79366;BME280;68833;53.160;17.920;2023-09-19T13:17:11;100168.26;;;21.06;53.66
79366;BME280;68833;53.160;17.920;2023-09-19T13:19:47;100168.56;;;21.01;53.52
79366;BME280;68833;53.160;17.920;2023-09-19T13:25:03;100166.91;;;20.87;53.31
79366;BME280;68833;53.160;17.920;2023-09-19T13:27:30;100163.70;;;20.84;53.68
79366;BME280;68833;53.160;17.920;2023-09-19T13:29:58;100158.80;;;20.82;53.63
79366;BME280;68833;53.160;17.920;2023-09-19T13:32:26;100161.45;;;20.83;53.76
79366;BME280;68833;53.160;17.920;2023-09-19T13:34:52;100161.02;;;20.83;53.59
79366;BME280;68833;53.160;17.920;2023-09-19T13:37:19;100163.86;;;20.87;52.95
79366;BME280;68833;53.160;17.920;2023-09-19T13:39:46;100168.96;;;20.88;52.84
79366;BME280;68833;53.160;17.920;2023-09-19T13:42:15;100168.33;;;20.90;51.82
79366;BME280;68833;53.160;17.920;2023-09-19T13:44:43;100164.62;;;20.92;52.19
79366;BME280;68833;53.160;17.920;2023-09-19T13:47:10;100163.96;;;20.94;51.85
79366;BME280;68833;53.160;17.920;2023-09-19T13:49:40;100166.34;;;20.93;51.70